sensor_id;sensor_type;location;lat;lon;timestamp;pressure;altitude;pressure_sealevel;temperature;humidity
44685;BME280;76140;45.696;8.652;2024-02-23T00:00:14;96963.85;;;3.58;44.99
44685;BME280;76140;45.696;8.652;2024-02-23T00:02:40;96955.28;;;4.08;45.51
44685;BME280;76140;45.696;8.652;2024-02-23T00:05:06;96953.34;;;3.42;45.47
44685;BME280;76140;45.696;8.652;2024-02-23T00:07:32;96951.86;;;3.50;45.20
44685;BME280;76140;45.696;8.652;2024-02-23T00:09:57;96964.07;;;3.47;45.19
44685;BME280;76140;45.696;8.652;2024-02-23T00:12:23;96962.06;;;3.61;46.56
44685;BME280;76140;45.696;8.652;2024-02-23T00:14:49;96960.66;;;3.68;45.13
44685;BME280;76140;45.696;8.652;2024-02-23T00:17:14;96964.63;;;3.07;45.24
44685;BME280;76140;45.696;8.652;2024-02-23T00:19:39;96957.94;;;3.46;45.22
44685;BME280;76140;45.696;8.652;2024-02-23T00:22:04;96953.75;;;3.61;44.74
44685;BME280;76140;45.696;8.652;2024-02-23T00:24:30;96950.70;;;3.20;45.11
44685;BME280;76140;45.696;8.652;2024-02-23T00:26:56;96950.63;;;3.17;45.04
44685;BME280;76140;45.696;8.652;2024-02-23T00:29:21;96954.59;;;1.88;46.59
44685;BME280;76140;45.696;8.652;2024-02-23T00:31:46;96955.42;;;2.38;46.81
44685;BME280;76140;45.696;8.652;2024-02-23T00:34:11;96945.74;;;2.67;46.09
44685;BME280;76140;45.696;8.652;2024-02-23T00:36:38;96941.55;;;2.45;45.95
44685;BME280;76140;45.696;8.652;2024-02-23T00:39:02;96943.27;;;2.98;45.40
44685;BME280;76140;45.696;8.652;2024-02-23T00:41:28;96943.29;;;2.48;46.54
44685;BME280;76140;45.696;8.652;2024-02-23T00:43:53;96934.33;;;1.83;47.31
44685;BME280;76140;45.696;8.652;2024-02-23T00:46:19;96931.63;;;2.60;46.40
44685;BME280;76140;45.696;8.652;2024-02-23T00:48:44;96927.07;;;2.64;45.12
44685;BME280;76140;45.696;8.652;2024-02-23T00:51:09;96926.67;;;3.01;44.83
44685;BME280;76140;45.696;8.652;2024-02-23T00:53:35;96918.88;;;3.07;44.64
44685;BME280;76140;45.696;8.652;2024-02-23T00:56:00;96915.87;;;3.16;44.65
44685;BME280;76140;45.696;8.652;2024-02-23T00:58:25;96910.29;;;3.06;44.84
44685;BME280;76140;45.696;8.652;2024-02-23T01:00:51;96902.78;;;3.17;44.89
44685;BME280;76140;45.696;8.652;2024-02-23T01:03:16;96899.64;;;2.49;45.53
44685;BME280;76140;45.696;8.652;2024-02-23T01:05:41;96894.51;;;3.02;45.59
44685;BME280;76140;45.696;8.652;2024-02-23T01:08:07;96894.25;;;2.74;45.00
44685;BME280;76140;45.696;8.652;2024-02-23T01:10:32;96895.04;;;2.95;44.93
44685;BME280;76140;45.696;8.652;2024-02-23T01:12:57;96895.93;;;2.57;45.28
44685;BME280;76140;45.696;8.652;2024-02-23T01:15:23;96897.23;;;2.97;45.41
44685;BME280;76140;45.696;8.652;2024-02-23T01:17:48;96896.17;;;2.68;45.16
44685;BME280;76140;45.696;8.652;2024-02-23T01:20:13;96891.85;;;2.60;45.25
44685;BME280;76140;45.696;8.652;2024-02-23T01:22:38;96886.65;;;3.23;45.31
44685;BME280;76140;45.696;8.652;2024-02-23T01:25:05;96891.07;;;2.47;46.00
44685;BME280;76140;45.696;8.652;2024-02-23T01:27:29;96891.67;;;2.56;46.12
44685;BME280;76140;45.696;8.652;2024-02-23T01:29:54;96892.28;;;2.70;46.10
44685;BME280;76140;45.696;8.652;2024-02-23T01:32:20;96891.24;;;2.67;46.58
44685;BME280;76140;45.696;8.652;2024-02-23T01:34:45;96895.38;;;2.55;46.20
44685;BME280;76140;45.696;8.652;2024-02-23T01:37:10;96894.03;;;3.04;46.02
44685;BME280;76140;45.696;8.652;2024-02-23T01:39:36;96883.87;;;2.66;46.17
44685;BME280;76140;45.696;8.652;2024-02-23T01:42:02;96877.88;;;2.94;45.82
44685;BME280;76140;45.696;8.652;2024-02-23T01:44:27;96872.83;;;2.67;45.90
44685;BME280;76140;45.696;8.652;2024-02-23T01:46:52;96868.22;;;2.70;45.34
44685;BME280;76140;45.696;8.652;2024-02-23T01:49:18;96857.86;;;2.80;45.09
44685;BME280;76140;45.696;8.652;2024-02-23T01:51:43;96852.01;;;2.54;45.04
44685;BME280;76140;45.696;8.652;2024-02-23T01:54:08;96851.83;;;2.13;45.73
44685;BME280;76140;45.696;8.652;2024-02-23T01:56:34;96838.85;;;2.54;46.32
44685;BME280;76140;45.696;8.652;2024-02-23T01:58:59;96823.70;;;2.30;46.15
44685;BME280;76140;45.696;8.652;2024-02-23T02:01:24;96811.76;;;2.43;46.09
44685;BME280;76140;45.696;8.652;2024-02-23T02:03:49;96811.23;;;2.56;45.32
44685;BME280;76140;45.696;8.652;2024-02-23T02:06:15;96809.04;;;2.60;45.48
44685;BME280;76140;45.696;8.652;2024-02-23T02:08:40;96812.84;;;2.85;45.75
44685;BME280;76140;45.696;8.652;2024-02-23T02:11:05;96814.22;;;2.74;46.11
44685;BME280;76140;45.696;8.652;2024-02-23T02:13:31;96808.46;;;2.88;45.37
44685;BME280;76140;45.696;8.652;2024-02-23T02:15:56;96802.00;;;2.69;44.70
44685;BME280;76140;45.696;8.652;2024-02-23T02:18:21;96789.59;;;3.10;44.75
44685;BME280;76140;45.696;8.652;2024-02-23T02:20:51;96778.78;;;3.20;44.19
44685;BME280;76140;45.696;8.652;2024-02-23T02:23:12;96773.74;;;3.20;44.21
44685;BME280;76140;45.696;8.652;2024-02-23T02:25:38;96765.63;;;3.07;44.32
44685;BME280;76140;45.696;8.652;2024-02-23T02:28:06;96764.26;;;3.30;43.80
44685;BME280;76140;45.696;8.652;2024-02-23T02:30:28;96763.94;;;3.50;44.15
44685;BME280;76140;45.696;8.652;2024-02-23T02:32:53;96763.21;;;3.44;43.49
44685;BME280;76140;45.696;8.652;2024-02-23T02:35:18;96765.05;;;3.33;44.03
44685;BME280;76140;45.696;8.652;2024-02-23T02:37:44;96773.40;;;3.50;43.62
44685;BME280;76140;45.696;8.652;2024-02-23T02:40:09;96766.77;;;3.45;44.02
44685;BME280;76140;45.696;8.652;2024-02-23T02:42:34;96757.80;;;3.36;43.50
44685;BME280;76140;45.696;8.652;2024-02-23T02:45:00;96754.41;;;3.49;43.80
44685;BME280;76140;45.696;8.652;2024-02-23T02:47:25;96757.36;;;3.23;44.01
44685;BME280;76140;45.696;8.652;2024-02-23T02:49:50;96754.14;;;3.52;44.14
44685;BME280;76140;45.696;8.652;2024-02-23T02:52:16;96754.81;;;3.38;43.84
44685;BME280;76140;45.696;8.652;2024-02-23T02:54:41;96753.95;;;3.20;44.42
44685;BME280;76140;45.696;8.652;2024-02-23T02:57:06;96751.63;;;3.26;43.59
44685;BME280;76140;45.696;8.652;2024-02-23T02:59:34;96748.13;;;3.34;43.97
44685;BME280;76140;45.696;8.652;2024-02-23T03:01:57;96746.33;;;3.51;43.53
44685;BME280;76140;45.696;8.652;2024-02-23T03:04:22;96744.15;;;3.44;43.45
44685;BME280;76140;45.696;8.652;2024-02-23T03:06:47;96742.72;;;3.62;43.73
44685;BME280;76140;45.696;8.652;2024-02-23T03:09:13;96742.02;;;3.68;43.35
44685;BME280;76140;45.696;8.652;2024-02-23T03:11:38;96743.15;;;3.21;44.07
44685;BME280;76140;45.696;8.652;2024-02-23T03:14:03;96738.73;;;3.22;44.20
44685;BME280;76140;45.696;8.652;2024-02-23T03:16:29;96735.58;;;3.22;44.42
44685;BME280;76140;45.696;8.652;2024-02-23T03:18:54;96740.43;;;3.60;44.91
44685;BME280;76140;45.696;8.652;2024-02-23T03:21:19;96743.07;;;3.18;45.78
44685;BME280;76140;45.696;8.652;2024-02-23T03:23:45;96748.12;;;3.57;45.01
44685;BME280;76140;45.696;8.652;2024-02-23T03:26:10;96737.55;;;3.22;44.46
44685;BME280;76140;45.696;8.652;2024-02-23T03:28:35;96738.28;;;2.84;44.74
44685;BME280;76140;45.696;8.652;2024-02-23T03:31:00;96742.99;;;3.35;43.94
44685;BME280;76140;45.696;8.652;2024-02-23T03:33:26;96747.88;;;3.06;43.93
44685;BME280;76140;45.696;8.652;2024-02-23T03:35:51;96747.49;;;3.14;44.78
44685;BME280;76140;45.696;8.652;2024-02-23T03:38:16;96744.71;;;3.26;43.68
44685;BME280;76140;45.696;8.652;2024-02-23T03:40:41;96745.33;;;3.25;43.66
44685;BME280;76140;45.696;8.652;2024-02-23T03:43:07;96741.51;;;3.04;43.26
44685;BME280;76140;45.696;8.652;2024-02-23T03:45:32;96744.06;;;3.09;44.01
44685;BME280;76140;45.696;8.652;2024-02-23T03:47:57;96747.83;;;2.90;43.49
44685;BME280;76140;45.696;8.652;2024-02-23T03:50:22;96748.99;;;2.99;43.49
44685;BME280;76140;45.696;8.652;2024-02-23T03:52:48;96742.81;;;2.82;43.80
44685;BME280;76140;45.696;8.652;2024-02-23T03:55:13;96734.19;;;2.72;43.49
44685;BME280;76140;45.696;8.652;2024-02-23T03:57:38;96725.62;;;2.77;44.11
44685;BME280;76140;45.696;8.652;2024-02-23T04:00:05;96717.91;;;2.89;43.83
44685;BME280;76140;45.696;8.652;2024-02-23T04:02:29;96714.45;;;3.15;43.84
44685;BME280;76140;45.696;8.652;2024-02-23T04:04:54;96700.97;;;2.71;43.54
44685;BME280;76140;45.696;8.652;2024-02-23T04:07:19;96703.69;;;2.53;44.58
44685;BME280;76140;45.696;8.652;2024-02-23T04:09:45;96710.21;;;1.85;44.48
44685;BME280;76140;45.696;8.652;2024-02-23T04:12:10;96700.73;;;2.71;43.92
44685;BME280;76140;45.696;8.652;2024-02-23T04:14:35;96690.36;;;3.15;43.47
44685;BME280;76140;45.696;8.652;2024-02-23T04:17:00;96676.06;;;2.96;43.39
44685;BME280;76140;45.696;8.652;2024-02-23T04:19:26;96663.89;;;3.22;43.91
44685;BME280;76140;45.696;8.652;2024-02-23T04:21:51;96658.34;;;3.09;43.71
44685;BME280;76140;45.696;8.652;2024-02-23T04:24:16;96653.82;;;3.27;43.62
44685;BME280;76140;45.696;8.652;2024-02-23T04:26:42;96650.96;;;3.06;43.75
44685;BME280;76140;45.696;8.652;2024-02-23T04:29:07;96641.64;;;3.18;43.49
44685;BME280;76140;45.696;8.652;2024-02-23T04:31:32;96630.72;;;2.60;44.22
44685;BME280;76140;45.696;8.652;2024-02-23T04:33:57;96625.70;;;2.86;43.64
44685;BME280;76140;45.696;8.652;2024-02-23T04:36:23;96632.24;;;2.85;43.99
44685;BME280;76140;45.696;8.652;2024-02-23T04:38:48;96631.92;;;2.91;43.64
44685;BME280;76140;45.696;8.652;2024-02-23T04:41:13;96628.73;;;2.81;43.79
44685;BME280;76140;45.696;8.652;2024-02-23T04:43:39;96635.58;;;3.37;43.56
44685;BME280;76140;45.696;8.652;2024-02-23T04:46:04;96646.15;;;3.06;43.72
44685;BME280;76140;45.696;8.652;2024-02-23T04:48:29;96657.81;;;2.42;44.72
44685;BME280;76140;45.696;8.652;2024-02-23T04:50:54;96668.71;;;1.68;47.92
44685;BME280;76140;45.696;8.652;2024-02-23T04:53:20;96672.93;;;1.64;47.61
44685;BME280;76140;45.696;8.652;2024-02-23T04:55:45;96672.88;;;1.69;46.62
44685;BME280;76140;45.696;8.652;2024-02-23T04:58:10;96680.44;;;2.09;45.93
44685;BME280;76140;45.696;8.652;2024-02-23T05:00:35;96692.36;;;2.45;45.08
44685;BME280;76140;45.696;8.652;2024-02-23T05:03:01;96702.75;;;2.33;45.20
44685;BME280;76140;45.696;8.652;2024-02-23T05:05:26;96701.32;;;2.25;45.66
44685;BME280;76140;45.696;8.652;2024-02-23T05:07:51;96701.61;;;2.09;45.49
44685;BME280;76140;45.696;8.652;2024-02-23T05:10:17;96701.65;;;2.70;44.83
44685;BME280;76140;45.696;8.652;2024-02-23T05:12:42;96696.39;;;2.53;45.02
44685;BME280;76140;45.696;8.652;2024-02-23T05:15:08;96689.73;;;2.70;44.83
44685;BME280;76140;45.696;8.652;2024-02-23T05:17:32;96682.12;;;2.42;44.83
44685;BME280;76140;45.696;8.652;2024-02-23T05:19:58;96679.30;;;1.68;46.07
44685;BME280;76140;45.696;8.652;2024-02-23T05:22:23;96685.84;;;2.36;46.29
44685;BME280;76140;45.696;8.652;2024-02-23T05:24:49;96686.33;;;1.03;47.95
44685;BME280;76140;45.696;8.652;2024-02-23T05:27:14;96687.85;;;0.81;49.12
44685;BME280;76140;45.696;8.652;2024-02-23T05:29:39;96685.13;;;1.36;48.00
44685;BME280;76140;45.696;8.652;2024-02-23T05:32:05;96675.56;;;1.26;46.85
44685;BME280;76140;45.696;8.652;2024-02-23T05:34:30;96657.13;;;1.34;46.03
44685;BME280;76140;45.696;8.652;2024-02-23T05:36:55;96632.76;;;2.38;44.46
44685;BME280;76140;45.696;8.652;2024-02-23T05:39:21;96620.41;;;2.34;44.72
44685;BME280;76140;45.696;8.652;2024-02-23T05:41:46;96609.18;;;2.31;43.79
44685;BME280;76140;45.696;8.652;2024-02-23T05:44:11;96610.05;;;1.99;44.87
44685;BME280;76140;45.696;8.652;2024-02-23T05:46:37;96609.60;;;1.95;45.31
44685;BME280;76140;45.696;8.652;2024-02-23T05:49:02;96622.15;;;1.72;45.54
44685;BME280;76140;45.696;8.652;2024-02-23T05:51:29;96633.06;;;1.84;45.50
44685;BME280;76140;45.696;8.652;2024-02-23T05:53:52;96631.27;;;1.33;45.84
44685;BME280;76140;45.696;8.652;2024-02-23T05:56:18;96623.19;;;1.61;46.16
44685;BME280;76140;45.696;8.652;2024-02-23T05:58:43;96623.56;;;2.00;46.02
44685;BME280;76140;45.696;8.652;2024-02-23T06:01:08;96611.95;;;1.52;45.57
44685;BME280;76140;45.696;8.652;2024-02-23T06:03:34;96610.50;;;1.87;45.27
44685;BME280;76140;45.696;8.652;2024-02-23T06:05:59;96611.33;;;1.87;44.99
44685;BME280;76140;45.696;8.652;2024-02-23T06:08:25;96617.51;;;1.95;45.13
44685;BME280;76140;45.696;8.652;2024-02-23T06:10:50;96631.47;;;2.56;44.45
44685;BME280;76140;45.696;8.652;2024-02-23T06:13:15;96642.46;;;2.41;44.42
44685;BME280;76140;45.696;8.652;2024-02-23T06:15:41;96641.91;;;2.06;44.81
44685;BME280;76140;45.696;8.652;2024-02-23T06:18:06;96631.71;;;2.66;44.00
44685;BME280;76140;45.696;8.652;2024-02-23T06:20:31;96630.97;;;2.04;44.66
44685;BME280;76140;45.696;8.652;2024-02-23T06:22:57;96620.93;;;2.32;44.39
44685;BME280;76140;45.696;8.652;2024-02-23T06:25:22;96614.39;;;2.65;44.09
44685;BME280;76140;45.696;8.652;2024-02-23T06:27:47;96611.11;;;2.64;43.63
44685;BME280;76140;45.696;8.652;2024-02-23T06:30:13;96620.01;;;2.59;43.62
44685;BME280;76140;45.696;8.652;2024-02-23T06:32:39;96635.53;;;2.64;43.10
44685;BME280;76140;45.696;8.652;2024-02-23T06:35:04;96642.64;;;2.75;43.96
44685;BME280;76140;45.696;8.652;2024-02-23T06:37:29;96654.03;;;1.74;44.07
44685;BME280;76140;45.696;8.652;2024-02-23T06:39:55;96659.69;;;2.90;44.29
44685;BME280;76140;45.696;8.652;2024-02-23T06:42:20;96660.95;;;2.63;43.80
44685;BME280;76140;45.696;8.652;2024-02-23T06:44:45;96656.55;;;2.70;43.38
44685;BME280;76140;45.696;8.652;2024-02-23T06:47:10;96654.80;;;2.24;43.73
44685;BME280;76140;45.696;8.652;2024-02-23T06:49:36;96662.86;;;2.37;43.59
44685;BME280;76140;45.696;8.652;2024-02-23T06:52:01;96662.72;;;2.32;43.83
44685;BME280;76140;45.696;8.652;2024-02-23T06:54:26;96666.86;;;2.44;44.13
44685;BME280;76140;45.696;8.652;2024-02-23T06:56:52;96662.75;;;1.96;44.29
44685;BME280;76140;45.696;8.652;2024-02-23T06:59:17;96668.05;;;2.41;43.52
44685;BME280;76140;45.696;8.652;2024-02-23T07:01:51;96670.49;;;2.53;43.50
44685;BME280;76140;45.696;8.652;2024-02-23T07:04:08;96673.50;;;2.86;43.82
44685;BME280;76140;45.696;8.652;2024-02-23T07:06:33;96690.08;;;2.68;43.64
44685;BME280;76140;45.696;8.652;2024-02-23T07:08:59;96701.54;;;3.13;43.04
44685;BME280;76140;45.696;8.652;2024-02-23T07:11:24;96703.87;;;1.91;44.51
44685;BME280;76140;45.696;8.652;2024-02-23T07:13:49;96698.10;;;2.32;44.37
44685;BME280;76140;45.696;8.652;2024-02-23T07:16:14;96702.24;;;2.41;43.99
44685;BME280;76140;45.696;8.652;2024-02-23T07:18:40;96698.22;;;2.87;43.79
44685;BME280;76140;45.696;8.652;2024-02-23T07:21:05;96690.62;;;1.87;44.65
44685;BME280;76140;45.696;8.652;2024-02-23T07:23:30;96690.45;;;2.13;44.75
44685;BME280;76140;45.696;8.652;2024-02-23T07:25:56;96686.87;;;2.54;44.67
44685;BME280;76140;45.696;8.652;2024-02-23T07:28:21;96675.42;;;2.64;44.29
44685;BME280;76140;45.696;8.652;2024-02-23T07:30:46;96670.03;;;2.50;43.99
44685;BME280;76140;45.696;8.652;2024-02-23T07:33:12;96670.25;;;2.73;44.56
44685;BME280;76140;45.696;8.652;2024-02-23T07:35:38;96680.48;;;2.26;44.67
44685;BME280;76140;45.696;8.652;2024-02-23T07:38:03;96677.90;;;2.30;44.55
44685;BME280;76140;45.696;8.652;2024-02-23T07:40:28;96672.28;;;1.70;44.30
44685;BME280;76140;45.696;8.652;2024-02-23T07:42:53;96667.63;;;2.27;44.57
44685;BME280;76140;45.696;8.652;2024-02-23T07:45:18;96662.82;;;2.48;44.14
44685;BME280;76140;45.696;8.652;2024-02-23T07:47:44;96667.33;;;2.15;44.95
44685;BME280;76140;45.696;8.652;2024-02-23T07:50:09;96663.99;;;2.77;44.13
44685;BME280;76140;45.696;8.652;2024-02-23T07:52:34;96661.77;;;2.08;44.13
44685;BME280;76140;45.696;8.652;2024-02-23T07:55:00;96668.17;;;2.18;44.12
44685;BME280;76140;45.696;8.652;2024-02-23T07:57:25;96676.28;;;2.73;43.75
44685;BME280;76140;45.696;8.652;2024-02-23T07:59:50;96671.98;;;2.88;43.88
44685;BME280;76140;45.696;8.652;2024-02-23T08:02:16;96665.59;;;2.78;43.74
44685;BME280;76140;45.696;8.652;2024-02-23T08:04:41;96671.69;;;2.69;43.84
44685;BME280;76140;45.696;8.652;2024-02-23T08:07:06;96672.67;;;2.88;43.70
44685;BME280;76140;45.696;8.652;2024-02-23T08:09:31;96673.83;;;2.04;44.28
44685;BME280;76140;45.696;8.652;2024-02-23T08:11:57;96672.46;;;2.65;43.41
44685;BME280;76140;45.696;8.652;2024-02-23T08:14:22;96671.28;;;2.82;43.01
44685;BME280;76140;45.696;8.652;2024-02-23T08:16:47;96665.11;;;2.62;43.46
44685;BME280;76140;45.696;8.652;2024-02-23T08:19:13;96662.00;;;2.71;43.70
44685;BME280;76140;45.696;8.652;2024-02-23T08:21:38;96658.28;;;2.64;43.81
44685;BME280;76140;45.696;8.652;2024-02-23T08:24:03;96662.10;;;2.39;44.23
44685;BME280;76140;45.696;8.652;2024-02-23T08:26:29;96665.14;;;2.40;44.80
44685;BME280;76140;45.696;8.652;2024-02-23T08:28:54;96659.17;;;2.65;44.21
44685;BME280;76140;45.696;8.652;2024-02-23T08:31:19;96660.55;;;2.72;44.10
44685;BME280;76140;45.696;8.652;2024-02-23T08:33:44;96670.95;;;2.60;44.27
44685;BME280;76140;45.696;8.652;2024-02-23T08:36:10;96678.61;;;2.83;43.73
44685;BME280;76140;45.696;8.652;2024-02-23T08:38:35;96689.39;;;2.78;44.00
44685;BME280;76140;45.696;8.652;2024-02-23T08:41:00;96692.30;;;2.75;43.98
44685;BME280;76140;45.696;8.652;2024-02-23T08:43:25;96701.52;;;2.86;44.15
44685;BME280;76140;45.696;8.652;2024-02-23T08:45:51;96700.64;;;2.84;43.94
44685;BME280;76140;45.696;8.652;2024-02-23T08:48:16;96692.12;;;2.68;43.90
44685;BME280;76140;45.696;8.652;2024-02-23T08:50:41;96683.72;;;3.26;43.89
44685;BME280;76140;45.696;8.652;2024-02-23T08:53:06;96675.42;;;2.76;44.34
44685;BME280;76140;45.696;8.652;2024-02-23T08:55:32;96667.34;;;3.33;43.53
44685;BME280;76140;45.696;8.652;2024-02-23T08:57:57;96668.78;;;3.35;43.55
44685;BME280;76140;45.696;8.652;2024-02-23T09:00:22;96671.31;;;3.42;42.65
44685;BME280;76140;45.696;8.652;2024-02-23T09:02:48;96674.44;;;3.59;42.33
44685;BME280;76140;45.696;8.652;2024-02-23T09:05:13;96669.28;;;3.52;41.87
44685;BME280;76140;45.696;8.652;2024-02-23T09:07:38;96664.90;;;3.55;42.03
44685;BME280;76140;45.696;8.652;2024-02-23T09:10:04;96668.66;;;3.11;42.39
44685;BME280;76140;45.696;8.652;2024-02-23T09:12:29;96669.00;;;3.03;42.59
44685;BME280;76140;45.696;8.652;2024-02-23T09:14:54;96675.03;;;3.75;42.10
44685;BME280;76140;45.696;8.652;2024-02-23T09:17:19;96675.87;;;4.02;41.81
44685;BME280;76140;45.696;8.652;2024-02-23T09:19:45;96677.96;;;4.29;41.12
44685;BME280;76140;45.696;8.652;2024-02-23T09:22:10;96680.08;;;3.67;41.57
44685;BME280;76140;45.696;8.652;2024-02-23T09:24:38;96683.32;;;4.25;40.97
44685;BME280;76140;45.696;8.652;2024-02-23T09:27:00;96688.40;;;4.30;41.33
44685;BME280;76140;45.696;8.652;2024-02-23T09:29:25;96689.43;;;4.41;40.82
44685;BME280;76140;45.696;8.652;2024-02-23T09:31:51;96689.12;;;4.77;40.92
44685;BME280;76140;45.696;8.652;2024-02-23T09:34:16;96687.02;;;4.35;40.71
44685;BME280;76140;45.696;8.652;2024-02-23T09:36:41;96684.10;;;3.79;40.86
44685;BME280;76140;45.696;8.652;2024-02-23T09:39:07;96679.20;;;4.37;40.85
44685;BME280;76140;45.696;8.652;2024-02-23T09:41:32;96675.77;;;3.96;41.26
44685;BME280;76140;45.696;8.652;2024-02-23T09:43:59;96677.84;;;4.34;41.26
44685;BME280;76140;45.696;8.652;2024-02-23T09:46:23;96673.69;;;4.35;40.69
44685;BME280;76140;45.696;8.652;2024-02-23T09:48:48;96667.42;;;4.65;40.63
44685;BME280;76140;45.696;8.652;2024-02-23T09:51:13;96664.64;;;4.87;41.14
44685;BME280;76140;45.696;8.652;2024-02-23T09:53:39;96661.00;;;4.98;41.11
44685;BME280;76140;45.696;8.652;2024-02-23T09:56:04;96658.56;;;4.68;41.15
44685;BME280;76140;45.696;8.652;2024-02-23T09:58:29;96651.80;;;5.20;40.43
44685;BME280;76140;45.696;8.652;2024-02-23T10:00:56;96659.71;;;4.68;40.95
44685;BME280;76140;45.696;8.652;2024-02-23T10:03:19;96661.17;;;4.73;40.69
44685;BME280;76140;45.696;8.652;2024-02-23T10:05:45;96665.75;;;4.52;40.98
44685;BME280;76140;45.696;8.652;2024-02-23T10:08:10;96661.65;;;5.21;40.35
44685;BME280;76140;45.696;8.652;2024-02-23T10:10:35;96654.79;;;5.00;40.92
44685;BME280;76140;45.696;8.652;2024-02-23T10:13:01;96652.36;;;4.99;40.68
44685;BME280;76140;45.696;8.652;2024-02-23T10:15:28;96655.06;;;4.71;40.91
44685;BME280;76140;45.696;8.652;2024-02-23T10:17:51;96652.10;;;5.78;40.03
44685;BME280;76140;45.696;8.652;2024-02-23T10:20:16;96651.83;;;5.29;40.51
44685;BME280;76140;45.696;8.652;2024-02-23T10:22:42;96657.71;;;5.13;40.58
44685;BME280;76140;45.696;8.652;2024-02-23T10:25:08;96670.54;;;5.44;40.33
44685;BME280;76140;45.696;8.652;2024-02-23T10:27:32;96679.50;;;4.98;39.74
44685;BME280;76140;45.696;8.652;2024-02-23T10:29:57;96677.08;;;5.48;40.11
44685;BME280;76140;45.696;8.652;2024-02-23T10:32:23;96674.34;;;5.55;40.48
44685;BME280;76140;45.696;8.652;2024-02-23T10:34:48;96672.26;;;5.03;40.78
44685;BME280;76140;45.696;8.652;2024-02-23T10:37:13;96670.41;;;5.11;40.50
44685;BME280;76140;45.696;8.652;2024-02-23T10:39:39;96674.13;;;5.04;39.91
44685;BME280;76140;45.696;8.652;2024-02-23T10:42:04;96675.53;;;5.14;39.96
44685;BME280;76140;45.696;8.652;2024-02-23T10:44:29;96675.16;;;5.33;39.87
44685;BME280;76140;45.696;8.652;2024-02-23T10:46:55;96676.04;;;4.77;40.55
44685;BME280;76140;45.696;8.652;2024-02-23T10:49:22;96676.57;;;4.77;40.72
44685;BME280;76140;45.696;8.652;2024-02-23T10:51:45;96665.43;;;5.11;40.40
44685;BME280;76140;45.696;8.652;2024-02-23T10:54:11;96660.51;;;5.50;40.05
44685;BME280;76140;45.696;8.652;2024-02-23T10:56:35;96671.19;;;5.33;40.21
44685;BME280;76140;45.696;8.652;2024-02-23T10:59:01;96677.70;;;4.61;39.61
44685;BME280;76140;45.696;8.652;2024-02-23T11:01:26;96672.91;;;5.30;39.79
44685;BME280;76140;45.696;8.652;2024-02-23T11:03:51;96676.11;;;5.76;39.41
44685;BME280;76140;45.696;8.652;2024-02-23T11:06:17;96674.80;;;6.22;39.16
44685;BME280;76140;45.696;8.652;2024-02-23T11:08:42;96679.67;;;6.45;38.54
44685;BME280;76140;45.696;8.652;2024-02-23T11:11:08;96681.70;;;5.56;38.86
44685;BME280;76140;45.696;8.652;2024-02-23T11:13:35;96691.47;;;6.65;38.05
44685;BME280;76140;45.696;8.652;2024-02-23T11:16:02;96688.41;;;6.31;38.86
44685;BME280;76140;45.696;8.652;2024-02-23T11:18:27;96685.68;;;6.44;38.39
44685;BME280;76140;45.696;8.652;2024-02-23T11:20:54;96687.89;;;6.24;39.16
44685;BME280;76140;45.696;8.652;2024-02-23T11:23:14;96691.06;;;6.31;38.64
44685;BME280;76140;45.696;8.652;2024-02-23T11:25:39;96683.25;;;6.04;39.35
44685;BME280;76140;45.696;8.652;2024-02-23T11:28:05;96681.29;;;6.04;38.87
44685;BME280;76140;45.696;8.652;2024-02-23T11:30:31;96679.34;;;6.10;38.92
44685;BME280;76140;45.696;8.652;2024-02-23T11:32:59;96675.67;;;6.38;38.95
44685;BME280;76140;45.696;8.652;2024-02-23T11:35:20;96674.35;;;6.16;38.76
44685;BME280;76140;45.696;8.652;2024-02-23T11:37:47;96674.89;;;6.57;38.46
44685;BME280;76140;45.696;8.652;2024-02-23T11:40:12;96676.58;;;6.39;38.64
44685;BME280;76140;45.696;8.652;2024-02-23T11:42:37;96678.68;;;7.06;38.43
44685;BME280;76140;45.696;8.652;2024-02-23T11:45:01;96671.00;;;6.52;38.95
44685;BME280;76140;45.696;8.652;2024-02-23T11:47:26;96665.63;;;6.33;38.79
44685;BME280;76140;45.696;8.652;2024-02-23T11:49:52;96660.51;;;6.48;38.31
44685;BME280;76140;45.696;8.652;2024-02-23T11:52:17;96656.73;;;6.80;37.83
44685;BME280;76140;45.696;8.652;2024-02-23T11:54:42;96655.33;;;6.95;37.93
44685;BME280;76140;45.696;8.652;2024-02-23T11:57:07;96651.04;;;6.91;37.71
44685;BME280;76140;45.696;8.652;2024-02-23T11:59:32;96646.63;;;6.75;37.72
44685;BME280;76140;45.696;8.652;2024-02-23T12:01:58;96644.71;;;7.16;37.16
44685;BME280;76140;45.696;8.652;2024-02-23T12:04:23;96639.81;;;7.31;37.54
44685;BME280;76140;45.696;8.652;2024-02-23T12:06:48;96636.77;;;7.58;36.69
44685;BME280;76140;45.696;8.652;2024-02-23T12:09:14;96633.01;;;7.51;37.41
44685;BME280;76140;45.696;8.652;2024-02-23T12:11:39;96628.56;;;7.14;37.43
44685;BME280;76140;45.696;8.652;2024-02-23T12:14:04;96621.63;;;7.58;37.35
44685;BME280;76140;45.696;8.652;2024-02-23T12:16:29;96613.45;;;5.49;36.61
44685;BME280;76140;45.696;8.652;2024-02-23T12:18:55;96605.23;;;8.41;35.39
44685;BME280;76140;45.696;8.652;2024-02-23T12:21:19;96586.99;;;9.32;34.84
44685;BME280;76140;45.696;8.652;2024-02-23T12:23:46;96578.56;;;8.36;35.84
44685;BME280;76140;45.696;8.652;2024-02-23T12:26:12;96566.94;;;8.76;35.56
44685;BME280;76140;45.696;8.652;2024-02-23T12:28:35;96552.97;;;9.42;35.74
44685;BME280;76140;45.696;8.652;2024-02-23T12:31:01;96552.82;;;9.11;35.57
44685;BME280;76140;45.696;8.652;2024-02-23T12:33:27;96559.85;;;9.13;35.15
44685;BME280;76140;45.696;8.652;2024-02-23T12:35:51;96566.55;;;8.98;35.09
44685;BME280;76140;45.696;8.652;2024-02-23T12:38:16;96570.58;;;8.10;35.90
44685;BME280;76140;45.696;8.652;2024-02-23T12:40:41;96570.05;;;8.97;36.24
44685;BME280;76140;45.696;8.652;2024-02-23T12:43:06;96572.96;;;8.66;36.45
44685;BME280;76140;45.696;8.652;2024-02-23T12:45:31;96574.01;;;9.01;36.62
44685;BME280;76140;45.696;8.652;2024-02-23T12:47:56;96572.85;;;8.41;35.56
44685;BME280;76140;45.696;8.652;2024-02-23T12:50:22;96576.92;;;8.77;34.52
44685;BME280;76140;45.696;8.652;2024-02-23T12:52:47;96581.06;;;9.36;35.74
44685;BME280;76140;45.696;8.652;2024-02-23T12:55:12;96576.35;;;8.61;35.42
44685;BME280;76140;45.696;8.652;2024-02-23T12:57:37;96564.52;;;8.58;34.51